Flight Track Log - Related Links

Times and Time Zones

All times are in EDT time to prevent confusion due to time zone crossing. See the AMF1026 flight status page for this flight to view local times or setup timezone preferences in your user account.

Time Position Orientation Groundspeed Altitude Reporting Facility
EDT Latitude Longitude Course Direction KTS MPH feet Rate Location/Type
Fri 08:36:19 PM 42.7611 -73.8089 355° North 135 155 900  Level Boston Center
Fri 08:36:56 PM 42.7881 -73.8122 355° North 154 177 2,100 2,103 Climbing Boston Center
Fri 08:37:56 PM 42.7936 -73.8661 278° West 175 201 4,300 1,944 Climbing Boston Center
Fri 08:38:44 PM 42.7808 -73.9025 244° Southwest 163 188 5,600 1,500 Climbing Boston Center
Fri 08:39:44 PM 42.7592 -73.9672 246° West 192 221 7,000 1,350 Climbing Boston Center
Fri 08:40:44 PM 42.7478 -74.0375 258° West 197 227 8,300 1,550 Climbing Boston Center
Fri 08:41:44 PM 42.7300 -74.1133 252° West 197 227 10,100 1,500 Climbing Boston Center
Fri 08:42:44 PM 42.7061 -74.1664 239° Southwest 197 227 11,300 1,250 Climbing Boston Center
Fri 08:43:44 PM 42.6906 -74.2394 254° West 197 227 12,600 1,250 Climbing Boston Center
Fri 08:44:44 PM 42.6792 -74.2983 255° West 184 212 13,800 1,200 Climbing Boston Center
Fri 08:45:44 PM 42.6653 -74.3686 255° West 178 205 15,000 1,050 Climbing Boston Center
Fri 08:46:44 PM 42.6519 -74.4275 253° West 183 211 15,900 550 Climbing Boston Center
Fri 08:47:44 PM 42.6339 -74.5058 253° West 189 217 16,100 50 Climbing Boston Center
Fri 08:48:44 PM 42.6181 -74.5731 252° West 203 234 16,000 -50 Descending Boston Center
Fri 08:49:44 PM 42.6039 -74.6628 258° West 224 258 16,000  Level Boston Center
Fri 08:50:44 PM 42.5939 -74.7386 260° West 234 269 16,000  Level Boston Center
Fri 08:51:44 PM 42.5836 -74.8314 261° West 234 269 16,000 -50 Level Boston Center
Fri 08:52:44 PM 42.5694 -74.9125 257° West 234 269 15,900  Descending Boston Center
Fri 08:53:44 PM 42.5450 -74.9792 244° Southwest 224 258 16,000 50 Climbing Boston Center
Fri 08:54:44 PM 42.5325 -75.0689 259° West 224 258 16,000  Level Boston Center
Fri 08:55:44 PM 42.5081 -75.1411 245° Southwest 224 258 16,000  Level Boston Center
Fri 08:56:44 PM 42.4811 -75.2189 245° Southwest 224 258 16,000  Level Boston Center
Fri 08:57:56 PM 42.4561 -75.2936 246° West 231 266 16,000 32 Level Boston Center
Fri 08:59:54 PM 42.3953 -75.4511 242° Southwest 201 231 16,100 34 Climbing New York Center
Fri 09:00:54 PM 42.3653 -75.5247 241° Southwest 201 231 16,100  Level New York Center
Fri 09:01:56 PM 42.3353 -75.5983 241° Southwest 213 245 16,100  Level New York Center
Fri 09:02:53 PM 42.3072 -75.6719 243° Southwest 218 251 16,100  Level New York Center
Fri 09:03:55 PM 42.2792 -75.7456 243° Southwest 212 244 16,100  Level New York Center
Fri 09:04:53 PM 42.2533 -75.8192 245° Southwest 218 251 16,100  Level New York Center
Fri 09:05:54 PM 42.2292 -75.8928 246° West 213 245 16,100  Level New York Center
Fri 09:06:54 PM 42.2053 -75.9667 246° West 213 245 16,100  Level New York Center
Fri 09:07:55 PM 42.1853 -76.0406 250° West 213 245 16,100  Level New York Center
Fri 09:08:55 PM 42.1653 -76.1175 251° West 213 245 16,100  Level New York Center
Fri 09:09:54 PM 42.1431 -76.1939 249° West 213 245 16,100  Level New York Center
Fri 09:10:53 PM 42.1250 -76.2678 252° West 218 251 16,100  Level New York Center
Fri 09:11:53 PM 42.1028 -76.3442 249° West 218 251 16,100 -50 Level New York Center
Fri 09:12:54 PM 42.0828 -76.4181 250° West 218 251 16,000 -50 Descending New York Center
Fri 09:13:54 PM 42.0603 -76.4944 248° West 223 257 16,000  Level New York Center
Fri 09:14:55 PM 42.0381 -76.5678 248° West 223 257 16,000  Level New York Center
Fri 09:15:54 PM 42.0158 -76.6356 246° West 223 257 16,000  Level New York Center
Fri 09:16:54 PM 41.9894 -76.7086 244° Southwest 223 257 16,000  Level New York Center
Fri 09:17:55 PM 41.9628 -76.7844 245° Southwest 223 257 16,000  Level New York Center
Fri 09:18:55 PM 41.9361 -76.8572 244° Southwest 228 262 16,000  Level New York Center
Fri 09:20:08 PM 41.8989 -76.9619 245° Southwest 227 261 16,000  Level Cleveland Center
Fri 09:21:08 PM 41.8678 -77.0361 241° Southwest 227 261 16,000  Level Cleveland Center
Fri 09:22:08 PM 41.8367 -77.1103 241° Southwest 227 261 16,000  Level Cleveland Center
Fri 09:23:08 PM 41.8075 -77.1844 242° Southwest 232 267 16,000  Level Cleveland Center
Fri 09:24:08 PM 41.7786 -77.2611 243° Southwest 232 267 16,000  Level Cleveland Center
Fri 09:25:08 PM 41.7558 -77.3375 248° West 232 267 16,000  Level Cleveland Center
Fri 09:26:08 PM 41.7308 -77.4167 247° West 227 261 16,000  Level Cleveland Center
Fri 09:27:08 PM 41.7058 -77.4931 246° West 227 261 16,000  Level Cleveland Center
Fri 09:28:08 PM 41.6767 -77.5722 244° Southwest 227 261 16,000  Level Cleveland Center
Fri 09:29:08 PM 41.6514 -77.6456 245° Southwest 227 261 16,000  Level Cleveland Center
Fri 09:30:08 PM 41.6261 -77.7219 246° West 227 261 16,000  Level Cleveland Center
Fri 09:31:08 PM 41.6008 -77.7953 245° Southwest 222 255 16,000  Level Cleveland Center
Fri 09:32:08 PM 41.5778 -77.8711 248° West 222 255 16,000  Level Cleveland Center
Fri 09:33:08 PM 41.5522 -77.9444 245° Southwest 222 255 16,000  Level Cleveland Center
Fri 09:34:08 PM 41.5289 -78.0175 247° West 222 255 16,000  Level Cleveland Center
Fri 09:35:08 PM 41.5056 -78.0933 248° West 222 255 16,000  Level Cleveland Center
Fri 09:36:08 PM 41.4803 -78.1689 246° West 222 255 16,000  Level Cleveland Center
Fri 09:37:08 PM 41.4567 -78.2447 247° West 222 255 16,000  Level Cleveland Center
Fri 09:38:08 PM 41.4311 -78.3175 245° Southwest 222 255 16,000  Level Cleveland Center
Fri 09:39:08 PM 41.4056 -78.3961 247° West 222 255 16,000  Level Cleveland Center
Fri 09:40:08 PM 41.3819 -78.4689 247° West 222 255 16,000  Level Cleveland Center
Fri 09:41:08 PM 41.3664 -78.5414 254° West 222 255 16,000  Level Cleveland Center
Fri 09:42:08 PM 41.3428 -78.6167 247° West 222 255 16,000  Level Cleveland Center
Fri 09:43:08 PM 41.3192 -78.6919 247° West 222 255 16,000  Level Cleveland Center
Fri 09:44:08 PM 41.2994 -78.7672 251° West 222 255 16,000 300 Level Cleveland Center
Fri 09:45:08 PM 41.2733 -78.8397 244° Southwest 222 255 16,600 800 Climbing Cleveland Center
Fri 09:46:08 PM 41.2558 -78.9094 252° West 217 250 17,600 650 Climbing Cleveland Center
Fri 09:47:08 PM 41.2317 -78.9761 244° Southwest 211 243 17,900 200 Climbing Cleveland Center
Fri 09:48:08 PM 41.2075 -79.0431 244° Southwest 205 236 18,000  Climbing Cleveland Center
Fri 09:49:08 PM 41.1836 -79.1153 246° West 205 236 17,900 -50 Descending Cleveland Center
Fri 09:50:08 PM 41.1575 -79.1986 247° West 215 247 17,900  Level Cleveland Center
Fri 09:51:08 PM 41.1333 -79.2708 246° West 215 247 17,900  Level Cleveland Center
Fri 09:52:08 PM 41.1153 -79.3428 252° West 220 253 17,900  Level Cleveland Center
Fri 09:53:08 PM 41.0953 -79.4178 251° West 220 253 17,900  Level Cleveland Center
Fri 09:54:08 PM 41.0750 -79.4953 251° West 220 253 17,900  Level Cleveland Center
Fri 09:55:08 PM 41.0531 -79.5725 249° West 225 259 17,900  Level Cleveland Center
Fri 09:56:08 PM 41.0306 -79.6500 249° West 225 259 17,900  Level Cleveland Center
Fri 09:57:08 PM 41.0083 -79.7275 249° West 230 265 17,900  Level Cleveland Center
Fri 09:58:08 PM 40.9881 -79.8019 250° West 230 265 17,900  Level Cleveland Center
Fri 09:59:08 PM 40.9678 -79.8792 251° West 230 265 17,900  Level Cleveland Center
Fri 10:00:08 PM 40.9472 -79.9536 250° West 230 265 17,900  Level Cleveland Center
Fri 10:01:08 PM 40.9267 -80.0308 251° West 230 265 17,900  Level Cleveland Center
Fri 10:02:08 PM 40.9064 -80.1078 251° West 230 265 17,900  Level Cleveland Center
Fri 10:03:08 PM 40.8836 -80.1850 249° West 230 265 17,900  Level Cleveland Center
Fri 10:04:08 PM 40.8611 -80.2700 251° West 230 265 17,900  Level Cleveland Center
Fri 10:05:08 PM 40.8444 -80.3417 253° West 230 265 17,900  Level Cleveland Center
Fri 10:06:08 PM 40.8239 -80.4211 251° West 230 265 17,900  Level Cleveland Center
Fri 10:07:09 PM 40.8008 -80.5008 249° West 230 265 17,900  Level Cleveland Center
Fri 10:08:08 PM 40.7842 -80.5775 254° West 230 265 17,900  Level Cleveland Center
Fri 10:09:08 PM 40.7614 -80.6681 252° West 230 265 17,900  Level Cleveland Center
Fri 10:10:08 PM 40.7467 -80.7339 254° West 223 257 17,900  Level Cleveland Center
Fri 10:11:08 PM 40.7256 -80.8133 251° West 223 257 17,900  Level Cleveland Center
Fri 10:12:08 PM 40.7067 -80.8925 253° West 228 262 17,900  Level Cleveland Center
Fri 10:13:08 PM 40.6878 -80.9719 253° West 228 262 17,900  Level Cleveland Center
Fri 10:14:08 PM 40.6622 -81.0647 250° West 233 268 17,900  Level Cleveland Center
Fri 10:15:08 PM 40.6433 -81.1442 253° West 243 280 17,900  Level Cleveland Center
Fri 10:16:08 PM 40.6239 -81.2258 253° West 243 280 17,900  Level Cleveland Center
Fri 10:17:08 PM 40.6069 -81.2997 253° West 243 280 17,900  Level Cleveland Center
Fri 10:18:08 PM 40.5897 -81.3733 253° West 237 273 17,900  Level Cleveland Center
Fri 10:19:08 PM 40.5703 -81.4578 253° West 237 273 17,900  Level Cleveland Center
Fri 10:21:39 PM 40.5236 -81.6644 254° West 233 268 17,900  Level Indianapolis Center
Fri 10:22:40 PM 40.5053 -81.7494 254° West 238 274 17,900  Level Indianapolis Center
Fri 10:23:41 PM 40.4850 -81.8325 252° West 237 273 17,900  Level Indianapolis Center
Fri 10:24:42 PM 40.4669 -81.9161 254° West 236 272 17,900  Level Indianapolis Center
Fri 10:25:43 PM 40.4475 -82.0003 253° West 238 274 17,900  Level Indianapolis Center
Fri 10:26:44 PM 40.4306 -82.0850 255° West 238 274 17,900  Level Indianapolis Center
Fri 10:27:44 PM 40.4036 -82.1658 246° West 241 277 17,900  Level Indianapolis Center
Fri 10:28:45 PM 40.3611 -82.2336 231° Southwest 240 276 17,900  Level Indianapolis Center
Fri 10:29:46 PM 40.3164 -82.2986 228° Southwest 239 275 17,900  Level Indianapolis Center
Fri 10:30:47 PM 40.2725 -82.3653 229° Southwest 241 277 17,900  Level Indianapolis Center
Fri 10:31:48 PM 40.2314 -82.4306 230° Southwest 237 273 17,900  Level Indianapolis Center
Fri 10:32:49 PM 40.1903 -82.4964 231° Southwest 233 268 17,900  Level Indianapolis Center
Fri 10:33:50 PM 40.1469 -82.5639 230° Southwest 240 276 17,900  Level Indianapolis Center
Fri 10:34:51 PM 40.1000 -82.6414 232° Southwest 234 269 17,900  Level Indianapolis Center
Fri 10:35:52 PM 40.0581 -82.7083 231° Southwest 236 272 17,900  Level Indianapolis Center
Fri 10:36:53 PM 40.0181 -82.7772 233° Southwest 237 273 17,900  Level Indianapolis Center
Fri 10:37:54 PM 39.9794 -82.8467 234° Southwest 236 272 17,900  Level Indianapolis Center
Fri 10:38:55 PM 39.9408 -82.9161 234° Southwest 235 270 17,900  Level Indianapolis Center
Fri 10:39:56 PM 39.9017 -82.9869 234° Southwest 237 273 17,900  Level Indianapolis Center
Fri 10:40:57 PM 39.8633 -83.0558 234° Southwest 234 269 17,900  Level Indianapolis Center
Fri 10:41:58 PM 39.8269 -83.1264 236° Southwest 232 267 17,900  Level Indianapolis Center
Fri 10:42:59 PM 39.7911 -83.2003 238° Southwest 240 276 17,900  Level Indianapolis Center
Fri 10:44:00 PM 39.7561 -83.2761 239° Southwest 240 276 17,900  Level Indianapolis Center
Fri 10:45:01 PM 39.7225 -83.3536 241° Southwest 242 278 17,900 -541 Level Indianapolis Center
Fri 10:46:02 PM 39.6869 -83.4375 241° Southwest 259 298 16,800 -1,082 Descending Indianapolis Center
Fri 10:47:03 PM 39.6489 -83.5247 240° Southwest 272 313 15,700 -1,377 Descending Indianapolis Center
Fri 10:48:04 PM 39.6156 -83.6117 244° Southwest 268 308 14,000 -1,574 Descending Indianapolis Center
Fri 10:49:05 PM 39.5789 -83.6994 242° Southwest 272 313 12,500 -1,377 Descending Indianapolis Center
Fri 10:50:06 PM 39.5478 -83.7842 245° Southwest 261 300 11,200 -738 Descending Indianapolis Center
Fri 10:51:07 PM 39.5189 -83.8653 245° Southwest 250 288 11,000 -49 Descending Indianapolis Center
Fri 10:52:08 PM 39.4844 -83.9431 240° Southwest 248 285 11,100  Climbing Indianapolis Center
Fri 10:53:09 PM 39.4439 -84.0169 235° Southwest 249 287 11,000 -49 Descending Indianapolis Center
Fri 10:54:10 PM 39.4042 -84.0942 236° Southwest 254 292 11,000 -344 Level Indianapolis Center
Fri 10:55:11 PM 39.3725 -84.1742 243° Southwest 250 288 10,300 -1,180 Descending Indianapolis Center
Fri 10:56:12 PM 39.3431 -84.2478 243° Southwest 234 269 8,600 -1,426 Descending Indianapolis Center
Fri 10:57:13 PM 39.3156 -84.3192 244° Southwest 223 257 7,400 -1,180 Descending Indianapolis Center
Fri 10:58:14 PM 39.2894 -84.3925 245° Southwest 222 255 6,200 -1,082 Descending Indianapolis Center
Fri 10:59:15 PM 39.2617 -84.4636 243° Southwest 221 254 5,200 -836 Descending Indianapolis Center
Fri 11:00:16 PM 39.2358 -84.5333 244° Southwest 216 249 4,500 -836 Descending Indianapolis Center
Fri 11:01:17 PM 39.2156 -84.6047 250° West 211 243 3,500 -884 Descending Indianapolis Center
Fri 11:01:51 PM 39.2000 -84.6500 246° West 198 228 3,100 -383 Descending Cincinnati TRACON
Fri 11:02:51 PM 39.1667 -84.6833 218° Southwest 131 151 2,900 -500 Descending Cincinnati TRACON
Fri 11:03:51 PM 39.1333 -84.6833 180° South 134 154 2,100 -750 Descending Cincinnati TRACON
Fri 11:04:51 PM 39.1000 -84.6833 180° South 130 150 1,400 -700 Descending Cincinnati TRACON
Fri 11:06:00 PM 39.0488 -84.6678 199° South  Level Estimated
Fri 11:13:00 PM 39.0488 -84.6678 199° South  Level Estimated

Login

Don't have an account? Register now (free) for customized features, flight alerts, and more!